sensor_id;sensor_type;location;lat;lon;timestamp;pressure;altitude;pressure_sealevel;temperature;humidity
47522;BME280;32291;52.010;4.446;2024-03-08T00:00:13;79615.19;;;-144.67;100.00
47522;BME280;32291;52.010;4.446;2024-03-08T00:01:21;79604.47;;;-144.67;100.00
47522;BME280;32291;52.010;4.446;2024-03-08T00:02:23;79604.47;;;-144.67;100.00
47522;BME280;32291;52.010;4.446;2024-03-08T00:03:30;79604.47;;;-144.67;100.00
47522;BME280;32291;52.010;4.446;2024-03-08T00:04:33;79613.06;;;-144.67;100.00
47522;BME280;32291;52.010;4.446;2024-03-08T00:05:36;79604.47;;;-144.67;100.00
47522;BME280;32291;52.010;4.446;2024-03-08T00:06:45;79606.63;;;-144.67;100.00
47522;BME280;32291;52.010;4.446;2024-03-08T00:07:52;79598.06;;;-144.67;100.00
47522;BME280;32291;52.010;4.446;2024-03-08T00:08:55;79600.19;;;-144.67;100.00
47522;BME280;32291;52.010;4.446;2024-03-08T00:10:08;79602.34;;;-144.67;100.00
47522;BME280;32291;52.010;4.446;2024-03-08T00:11:17;79606.63;;;-144.67;100.00
47522;BME280;32291;52.010;4.446;2024-03-08T00:12:24;79608.78;;;-144.67;100.00
47522;BME280;32291;52.010;4.446;2024-03-08T00:13:33;79598.06;;;-144.67;100.00
47522;BME280;32291;52.010;4.446;2024-03-08T00:14:40;79600.19;;;-144.67;100.00
47522;BME280;32291;52.010;4.446;2024-03-08T00:15:47;79606.63;;;-144.67;100.00
47522;BME280;32291;52.010;4.446;2024-03-08T00:16:54;79602.34;;;-144.67;100.00
47522;BME280;32291;52.010;4.446;2024-03-08T00:18:01;79602.34;;;-144.67;100.00
47522;BME280;32291;52.010;4.446;2024-03-08T00:19:08;79606.63;;;-144.67;100.00
47522;BME280;32291;52.010;4.446;2024-03-08T00:20:16;79595.91;;;-144.67;100.00
47522;BME280;32291;52.010;4.446;2024-03-08T00:21:21;79589.50;;;-144.67;100.00
47522;BME280;32291;52.010;4.446;2024-03-08T00:22:28;79606.63;;;-144.67;100.00
47522;BME280;32291;52.010;4.446;2024-03-08T00:23:37;79606.63;;;-144.67;100.00
47522;BME280;32291;52.010;4.446;2024-03-08T00:24:44;79610.91;;;-144.67;100.00
47522;BME280;32291;52.010;4.446;2024-03-08T00:25:50;79608.78;;;-144.67;100.00
47522;BME280;32291;52.010;4.446;2024-03-08T00:26:57;79608.78;;;-144.67;100.00
47522;BME280;32291;52.010;4.446;2024-03-08T00:28:05;79608.78;;;-144.67;100.00
47522;BME280;32291;52.010;4.446;2024-03-08T00:29:12;79602.34;;;-144.67;100.00
47522;BME280;32291;52.010;4.446;2024-03-08T00:30:19;79602.34;;;-144.67;100.00
47522;BME280;32291;52.010;4.446;2024-03-08T00:31:27;79598.06;;;-144.67;100.00
47522;BME280;32291;52.010;4.446;2024-03-08T00:32:34;79591.63;;;-144.67;100.00
47522;BME280;32291;52.010;4.446;2024-03-08T00:33:42;79598.06;;;-144.67;100.00
47522;BME280;32291;52.010;4.446;2024-03-08T00:34:44;79598.06;;;-144.67;100.00
47522;BME280;32291;52.010;4.446;2024-03-08T00:35:46;79598.06;;;-144.67;100.00
47522;BME280;32291;52.010;4.446;2024-03-08T00:36:54;79598.06;;;-144.67;100.00
47522;BME280;32291;52.010;4.446;2024-03-08T00:38:01;79595.91;;;-144.67;100.00
47522;BME280;32291;52.010;4.446;2024-03-08T00:39:10;79606.63;;;-144.67;100.00
47522;BME280;32291;52.010;4.446;2024-03-08T00:40:14;79608.78;;;-144.67;100.00
47522;BME280;32291;52.010;4.446;2024-03-08T00:41:21;79606.63;;;-144.67;100.00
47522;BME280;32291;52.010;4.446;2024-03-08T00:42:28;79606.63;;;-144.67;100.00
47522;BME280;32291;52.010;4.446;2024-03-08T00:43:30;79606.63;;;-144.67;100.00
47522;BME280;32291;52.010;4.446;2024-03-08T00:44:36;79615.19;;;-144.67;100.00
47522;BME280;32291;52.010;4.446;2024-03-08T00:45:44;79615.19;;;-144.67;100.00
47522;BME280;32291;52.010;4.446;2024-03-08T00:46:51;79617.34;;;-144.67;100.00
47522;BME280;32291;52.010;4.446;2024-03-08T00:48:00;79617.34;;;-144.67;100.00
47522;BME280;32291;52.010;4.446;2024-03-08T00:49:07;79615.19;;;-144.67;100.00
47522;BME280;32291;52.010;4.446;2024-03-08T00:50:13;79610.91;;;-144.67;100.00
47522;BME280;32291;52.010;4.446;2024-03-08T00:51:15;79615.19;;;-144.67;100.00
47522;BME280;32291;52.010;4.446;2024-03-08T00:52:22;79619.47;;;-144.67;100.00
47522;BME280;32291;52.010;4.446;2024-03-08T00:53:30;79623.75;;;-144.67;100.00
47522;BME280;32291;52.010;4.446;2024-03-08T00:54:37;79615.19;;;-144.67;100.00
47522;BME280;32291;52.010;4.446;2024-03-08T00:55:44;79619.47;;;-144.67;100.00
47522;BME280;32291;52.010;4.446;2024-03-08T00:56:48;79628.03;;;-144.67;100.00
47522;BME280;32291;52.010;4.446;2024-03-08T00:57:54;79623.75;;;-144.67;100.00
47522;BME280;32291;52.010;4.446;2024-03-08T00:59:02;79625.91;;;-144.67;100.00
47522;BME280;32291;52.010;4.446;2024-03-08T01:00:09;79621.63;;;-144.67;100.00
47522;BME280;32291;52.010;4.446;2024-03-08T01:01:14;79632.34;;;-144.67;100.00
47522;BME280;32291;52.010;4.446;2024-03-08T01:02:22;79630.19;;;-144.67;100.00
47522;BME280;32291;52.010;4.446;2024-03-08T01:03:29;79623.75;;;-144.67;100.00
47522;BME280;32291;52.010;4.446;2024-03-08T01:04:38;79623.75;;;-144.67;100.00
47522;BME280;32291;52.010;4.446;2024-03-08T01:05:45;79619.47;;;-144.67;100.00
47522;BME280;32291;52.010;4.446;2024-03-08T01:06:52;79621.63;;;-144.67;100.00
47522;BME280;32291;52.010;4.446;2024-03-08T01:07:59;79628.03;;;-144.67;100.00
47522;BME280;32291;52.010;4.446;2024-03-08T01:09:01;79625.91;;;-144.67;100.00
47522;BME280;32291;52.010;4.446;2024-03-08T01:10:08;79623.75;;;-144.67;100.00
47522;BME280;32291;52.010;4.446;2024-03-08T01:11:17;79628.03;;;-144.67;100.00
47522;BME280;32291;52.010;4.446;2024-03-08T01:12:24;79619.47;;;-144.67;100.00
47522;BME280;32291;52.010;4.446;2024-03-08T01:13:31;79615.19;;;-144.67;100.00
47522;BME280;32291;52.010;4.446;2024-03-08T01:14:38;79615.19;;;-144.67;100.00
47522;BME280;32291;52.010;4.446;2024-03-08T01:15:45;79615.19;;;-144.67;100.00
47522;BME280;32291;52.010;4.446;2024-03-08T01:16:52;79613.06;;;-144.67;100.00
47522;BME280;32291;52.010;4.446;2024-03-08T01:17:59;79610.91;;;-144.67;100.00
47522;BME280;32291;52.010;4.446;2024-03-08T01:19:02;79613.06;;;-144.67;100.00
47522;BME280;32291;52.010;4.446;2024-03-08T01:20:10;79615.19;;;-144.67;100.00
47522;BME280;32291;52.010;4.446;2024-03-08T01:21:19;79615.19;;;-144.67;100.00
47522;BME280;32291;52.010;4.446;2024-03-08T01:22:25;79613.06;;;-144.67;100.00
47522;BME280;32291;52.010;4.446;2024-03-08T01:23:33;79615.19;;;-144.67;100.00
47522;BME280;32291;52.010;4.446;2024-03-08T01:24:41;79621.63;;;-144.67;100.00
47522;BME280;32291;52.010;4.446;2024-03-08T01:25:48;79623.75;;;-144.67;100.00
47522;BME280;32291;52.010;4.446;2024-03-08T01:26:53;79623.75;;;-144.67;100.00
47522;BME280;32291;52.010;4.446;2024-03-08T01:28:00;79615.19;;;-144.67;100.00
47522;BME280;32291;52.010;4.446;2024-03-08T01:29:07;79615.19;;;-144.67;100.00
47522;BME280;32291;52.010;4.446;2024-03-08T01:30:10;79617.34;;;-144.67;100.00
47522;BME280;32291;52.010;4.446;2024-03-08T01:31:12;79615.19;;;-144.67;100.00
47522;BME280;32291;52.010;4.446;2024-03-08T01:32:20;79619.47;;;-144.67;100.00
47522;BME280;32291;52.010;4.446;2024-03-08T01:33:29;79623.75;;;-144.67;100.00
47522;BME280;32291;52.010;4.446;2024-03-08T01:34:40;79623.75;;;-144.67;100.00
47522;BME280;32291;52.010;4.446;2024-03-08T01:35:42;79623.75;;;-144.67;100.00
47522;BME280;32291;52.010;4.446;2024-03-08T01:36:49;79621.63;;;-144.67;100.00
47522;BME280;32291;52.010;4.446;2024-03-08T01:37:51;79615.19;;;-144.67;100.00
47522;BME280;32291;52.010;4.446;2024-03-08T01:38:58;79617.34;;;-144.67;100.00
47522;BME280;32291;52.010;4.446;2024-03-08T01:40:07;79623.75;;;-144.67;100.00
47522;BME280;32291;52.010;4.446;2024-03-08T01:41:15;79621.63;;;-144.67;100.00
47522;BME280;32291;52.010;4.446;2024-03-08T01:42:24;79623.75;;;-144.67;100.00
47522;BME280;32291;52.010;4.446;2024-03-08T01:43:28;79619.47;;;-144.67;100.00
47522;BME280;32291;52.010;4.446;2024-03-08T01:44:35;79615.19;;;-144.67;100.00
47522;BME280;32291;52.010;4.446;2024-03-08T01:45:37;79617.34;;;-144.67;100.00
47522;BME280;32291;52.010;4.446;2024-03-08T01:46:40;79615.19;;;-144.67;100.00
47522;BME280;32291;52.010;4.446;2024-03-08T01:47:47;79619.47;;;-144.67;100.00
47522;BME280;32291;52.010;4.446;2024-03-08T01:48:55;79619.47;;;-144.67;100.00
47522;BME280;32291;52.010;4.446;2024-03-08T01:50:03;79623.75;;;-144.67;100.00
47522;BME280;32291;52.010;4.446;2024-03-08T01:51:08;79623.75;;;-144.67;100.00
47522;BME280;32291;52.010;4.446;2024-03-08T01:52:17;79619.47;;;-144.67;100.00
47522;BME280;32291;52.010;4.446;2024-03-08T01:53:27;79621.63;;;-144.67;100.00
47522;BME280;32291;52.010;4.446;2024-03-08T01:54:36;79619.47;;;-144.67;100.00
47522;BME280;32291;52.010;4.446;2024-03-08T01:55:39;79617.34;;;-144.67;100.00
47522;BME280;32291;52.010;4.446;2024-03-08T01:56:42;79619.47;;;-144.67;100.00
47522;BME280;32291;52.010;4.446;2024-03-08T01:57:44;79623.75;;;-144.67;100.00
47522;BME280;32291;52.010;4.446;2024-03-08T01:58:51;79625.91;;;-144.67;100.00
47522;BME280;32291;52.010;4.446;2024-03-08T01:59:58;79625.91;;;-144.67;100.00
47522;BME280;32291;52.010;4.446;2024-03-08T02:01:01;79628.03;;;-144.67;100.00
47522;BME280;32291;52.010;4.446;2024-03-08T02:02:14;79619.47;;;-144.67;100.00
47522;BME280;32291;52.010;4.446;2024-03-08T02:03:24;79610.91;;;-144.67;100.00
47522;BME280;32291;52.010;4.446;2024-03-08T02:04:31;79621.63;;;-144.67;100.00
47522;BME280;32291;52.010;4.446;2024-03-08T02:05:40;79621.63;;;-144.67;100.00
47522;BME280;32291;52.010;4.446;2024-03-08T02:06:47;79617.34;;;-144.67;100.00
47522;BME280;32291;52.010;4.446;2024-03-08T02:07:55;79619.47;;;-144.67;100.00
47522;BME280;32291;52.010;4.446;2024-03-08T02:09:04;79628.03;;;-144.67;100.00
47522;BME280;32291;52.010;4.446;2024-03-08T02:10:12;79625.91;;;-144.67;100.00
47522;BME280;32291;52.010;4.446;2024-03-08T02:11:20;79625.91;;;-144.67;100.00
47522;BME280;32291;52.010;4.446;2024-03-08T02:12:27;79628.03;;;-144.67;100.00
47522;BME280;32291;52.010;4.446;2024-03-08T02:13:30;79630.19;;;-144.67;100.00
47522;BME280;32291;52.010;4.446;2024-03-08T02:14:32;79625.91;;;-144.67;100.00
47522;BME280;32291;52.010;4.446;2024-03-08T02:15:58;79619.47;;;-144.67;100.00
47522;BME280;32291;52.010;4.446;2024-03-08T02:17:05;79621.63;;;-144.67;100.00
47522;BME280;32291;52.010;4.446;2024-03-08T02:18:12;79615.19;;;-144.67;100.00
47522;BME280;32291;52.010;4.446;2024-03-08T02:19:19;79619.47;;;-144.67;100.00
47522;BME280;32291;52.010;4.446;2024-03-08T02:20:21;79619.47;;;-144.67;100.00
47522;BME280;32291;52.010;4.446;2024-03-08T02:21:30;79617.34;;;-144.67;100.00
47522;BME280;32291;52.010;4.446;2024-03-08T02:22:33;79619.47;;;-144.67;100.00
47522;BME280;32291;52.010;4.446;2024-03-08T02:23:40;79619.47;;;-144.67;100.00
47522;BME280;32291;52.010;4.446;2024-03-08T02:24:47;79617.34;;;-144.67;100.00
47522;BME280;32291;52.010;4.446;2024-03-08T02:25:56;79617.34;;;-144.67;100.00
47522;BME280;32291;52.010;4.446;2024-03-08T02:27:03;79617.34;;;-144.67;100.00
47522;BME280;32291;52.010;4.446;2024-03-08T02:28:06;79623.75;;;-144.67;100.00
47522;BME280;32291;52.010;4.446;2024-03-08T02:29:09;79621.63;;;-144.67;100.00
47522;BME280;32291;52.010;4.446;2024-03-08T02:30:11;79613.06;;;-144.67;100.00
47522;BME280;32291;52.010;4.446;2024-03-08T02:31:14;79619.47;;;-144.67;100.00
47522;BME280;32291;52.010;4.446;2024-03-08T02:32:16;79623.75;;;-144.67;100.00
47522;BME280;32291;52.010;4.446;2024-03-08T02:33:18;79619.47;;;-144.67;100.00
47522;BME280;32291;52.010;4.446;2024-03-08T02:34:26;79623.75;;;-144.67;100.00
47522;BME280;32291;52.010;4.446;2024-03-08T02:35:33;79615.19;;;-144.67;100.00
47522;BME280;32291;52.010;4.446;2024-03-08T02:36:40;79615.19;;;-144.67;100.00
47522;BME280;32291;52.010;4.446;2024-03-08T02:37:43;79613.06;;;-144.67;100.00
47522;BME280;32291;52.010;4.446;2024-03-08T02:38:46;79617.34;;;-144.67;100.00
47522;BME280;32291;52.010;4.446;2024-03-08T02:39:48;79617.34;;;-144.67;100.00
47522;BME280;32291;52.010;4.446;2024-03-08T02:40:55;79619.47;;;-144.67;100.00
47522;BME280;32291;52.010;4.446;2024-03-08T02:41:57;79623.75;;;-144.67;100.00
47522;BME280;32291;52.010;4.446;2024-03-08T02:43:04;79621.63;;;-144.67;100.00
47522;BME280;32291;52.010;4.446;2024-03-08T02:44:06;79619.47;;;-144.67;100.00
47522;BME280;32291;52.010;4.446;2024-03-08T02:45:09;79621.63;;;-144.67;100.00
47522;BME280;32291;52.010;4.446;2024-03-08T02:46:18;79623.75;;;-144.67;100.00
47522;BME280;32291;52.010;4.446;2024-03-08T02:47:25;79623.75;;;-144.67;100.00
47522;BME280;32291;52.010;4.446;2024-03-08T02:48:33;79619.47;;;-144.67;100.00
47522;BME280;32291;52.010;4.446;2024-03-08T02:49:44;79606.63;;;-144.67;100.00
47522;BME280;32291;52.010;4.446;2024-03-08T02:50:51;79602.34;;;-144.67;100.00
47522;BME280;32291;52.010;4.446;2024-03-08T02:51:54;79610.91;;;-144.67;100.00
47522;BME280;32291;52.010;4.446;2024-03-08T02:53:01;79619.47;;;-144.67;100.00
47522;BME280;32291;52.010;4.446;2024-03-08T02:54:09;79623.75;;;-144.67;100.00
47522;BME280;32291;52.010;4.446;2024-03-08T02:55:16;79621.63;;;-144.67;100.00
47522;BME280;32291;52.010;4.446;2024-03-08T02:56:23;79623.75;;;-144.67;100.00
47522;BME280;32291;52.010;4.446;2024-03-08T02:57:30;79623.75;;;-144.67;100.00
47522;BME280;32291;52.010;4.446;2024-03-08T02:58:37;79617.34;;;-144.67;100.00
47522;BME280;32291;52.010;4.446;2024-03-08T02:59:43;79621.63;;;-144.67;100.00
47522;BME280;32291;52.010;4.446;2024-03-08T03:01:11;79610.91;;;-144.67;100.00
47522;BME280;32291;52.010;4.446;2024-03-08T03:02:13;79619.47;;;-144.67;100.00
47522;BME280;32291;52.010;4.446;2024-03-08T03:03:20;79621.63;;;-144.67;100.00
47522;BME280;32291;52.010;4.446;2024-03-08T03:04:23;79628.03;;;-144.67;100.00
47522;BME280;32291;52.010;4.446;2024-03-08T03:05:30;79623.75;;;-144.67;100.00
47522;BME280;32291;52.010;4.446;2024-03-08T03:06:37;79615.19;;;-144.67;100.00
47522;BME280;32291;52.010;4.446;2024-03-08T03:07:44;79610.91;;;-144.67;100.00
47522;BME280;32291;52.010;4.446;2024-03-08T03:08:51;79606.63;;;-144.67;100.00
47522;BME280;32291;52.010;4.446;2024-03-08T03:09:53;79613.06;;;-144.67;100.00
47522;BME280;32291;52.010;4.446;2024-03-08T03:11:00;79625.91;;;-144.67;100.00
47522;BME280;32291;52.010;4.446;2024-03-08T03:12:08;79625.91;;;-144.67;100.00
47522;BME280;32291;52.010;4.446;2024-03-08T03:13:10;79625.91;;;-144.67;100.00
47522;BME280;32291;52.010;4.446;2024-03-08T03:14:19;79623.75;;;-144.67;100.00
47522;BME280;32291;52.010;4.446;2024-03-08T03:15:25;79625.91;;;-144.67;100.00
47522;BME280;32291;52.010;4.446;2024-03-08T03:16:32;79625.91;;;-144.67;100.00
47522;BME280;32291;52.010;4.446;2024-03-08T03:17:34;79628.03;;;-144.67;100.00
47522;BME280;32291;52.010;4.446;2024-03-08T03:18:41;79632.34;;;-144.67;100.00
47522;BME280;32291;52.010;4.446;2024-03-08T03:19:48;79634.47;;;-144.67;100.00
47522;BME280;32291;52.010;4.446;2024-03-08T03:20:54;79632.34;;;-144.67;100.00
47522;BME280;32291;52.010;4.446;2024-03-08T03:22:02;79628.03;;;-144.67;100.00
47522;BME280;32291;52.010;4.446;2024-03-08T03:23:09;79628.03;;;-144.67;100.00
47522;BME280;32291;52.010;4.446;2024-03-08T03:24:20;79634.47;;;-144.67;100.00
47522;BME280;32291;52.010;4.446;2024-03-08T03:25:27;79625.91;;;-144.67;100.00
47522;BME280;32291;52.010;4.446;2024-03-08T03:26:41;79623.75;;;-144.67;100.00
47522;BME280;32291;52.010;4.446;2024-03-08T03:27:45;79625.91;;;-144.67;100.00
47522;BME280;32291;52.010;4.446;2024-03-08T03:28:52;79628.03;;;-144.67;100.00
47522;BME280;32291;52.010;4.446;2024-03-08T03:30:00;79623.75;;;-144.67;100.00
47522;BME280;32291;52.010;4.446;2024-03-08T03:31:22;79623.75;;;-144.67;100.00
47522;BME280;32291;52.010;4.446;2024-03-08T03:32:30;79623.75;;;-144.67;100.00
47522;BME280;32291;52.010;4.446;2024-03-08T03:33:32;79623.75;;;-144.67;100.00
47522;BME280;32291;52.010;4.446;2024-03-08T03:34:41;79617.34;;;-144.67;100.00
47522;BME280;32291;52.010;4.446;2024-03-08T03:35:50;79617.34;;;-144.67;100.00
47522;BME280;32291;52.010;4.446;2024-03-08T03:36:58;79615.19;;;-144.67;100.00
47522;BME280;32291;52.010;4.446;2024-03-08T03:38:05;79619.47;;;-144.67;100.00
47522;BME280;32291;52.010;4.446;2024-03-08T03:39:13;79613.06;;;-144.67;100.00
47522;BME280;32291;52.010;4.446;2024-03-08T03:40:22;79617.34;;;-144.67;100.00
47522;BME280;32291;52.010;4.446;2024-03-08T03:41:31;79610.91;;;-144.67;100.00
47522;BME280;32291;52.010;4.446;2024-03-08T03:42:39;79610.91;;;-144.67;100.00
47522;BME280;32291;52.010;4.446;2024-03-08T03:43:46;79610.91;;;-144.67;100.00
47522;BME280;32291;52.010;4.446;2024-03-08T03:44:54;79598.06;;;-144.67;100.00
47522;BME280;32291;52.010;4.446;2024-03-08T03:46:01;79598.06;;;-144.67;100.00
47522;BME280;32291;52.010;4.446;2024-03-08T03:47:03;79598.06;;;-144.67;100.00
47522;BME280;32291;52.010;4.446;2024-03-08T03:48:07;79610.91;;;-144.67;100.00
47522;BME280;32291;52.010;4.446;2024-03-08T03:49:16;79606.63;;;-144.67;100.00
47522;BME280;32291;52.010;4.446;2024-03-08T03:50:24;79615.19;;;-144.67;100.00
47522;BME280;32291;52.010;4.446;2024-03-08T03:51:31;79615.19;;;-144.67;100.00
47522;BME280;32291;52.010;4.446;2024-03-08T03:52:38;79610.91;;;-144.67;100.00
47522;BME280;32291;52.010;4.446;2024-03-08T03:53:44;79615.19;;;-144.67;100.00
47522;BME280;32291;52.010;4.446;2024-03-08T03:54:51;79608.78;;;-144.67;100.00
47522;BME280;32291;52.010;4.446;2024-03-08T03:55:54;79610.91;;;-144.67;100.00
47522;BME280;32291;52.010;4.446;2024-03-08T03:56:56;79606.63;;;-144.67;100.00
47522;BME280;32291;52.010;4.446;2024-03-08T03:58:04;79610.91;;;-144.67;100.00
47522;BME280;32291;52.010;4.446;2024-03-08T03:59:07;79610.91;;;-144.67;100.00
47522;BME280;32291;52.010;4.446;2024-03-08T04:00:14;79608.78;;;-144.67;100.00
47522;BME280;32291;52.010;4.446;2024-03-08T04:01:21;79617.34;;;-144.67;100.00
47522;BME280;32291;52.010;4.446;2024-03-08T04:02:28;79613.06;;;-144.67;100.00
47522;BME280;32291;52.010;4.446;2024-03-08T04:03:35;79613.06;;;-144.67;100.00
47522;BME280;32291;52.010;4.446;2024-03-08T04:04:43;79610.91;;;-144.67;100.00
47522;BME280;32291;52.010;4.446;2024-03-08T04:05:52;79610.91;;;-144.67;100.00
47522;BME280;32291;52.010;4.446;2024-03-08T04:06:59;79613.06;;;-144.67;100.00
47522;BME280;32291;52.010;4.446;2024-03-08T04:08:05;79619.47;;;-144.67;100.00
47522;BME280;32291;52.010;4.446;2024-03-08T04:09:08;79615.19;;;-144.67;100.00
47522;BME280;32291;52.010;4.446;2024-03-08T04:10:16;79613.06;;;-144.67;100.00
47522;BME280;32291;52.010;4.446;2024-03-08T04:11:22;79617.34;;;-144.67;100.00
47522;BME280;32291;52.010;4.446;2024-03-08T04:12:29;79617.34;;;-144.67;100.00
47522;BME280;32291;52.010;4.446;2024-03-08T04:13:37;79628.03;;;-144.67;100.00
47522;BME280;32291;52.010;4.446;2024-03-08T04:14:44;79615.19;;;-144.67;100.00
47522;BME280;32291;52.010;4.446;2024-03-08T04:15:46;79617.34;;;-144.67;100.00
47522;BME280;32291;52.010;4.446;2024-03-08T04:16:50;79610.91;;;-144.67;100.00
47522;BME280;32291;52.010;4.446;2024-03-08T04:17:57;79619.47;;;-144.67;100.00
47522;BME280;32291;52.010;4.446;2024-03-08T04:19:03;79623.75;;;-144.67;100.00
47522;BME280;32291;52.010;4.446;2024-03-08T04:20:10;79619.47;;;-144.67;100.00
47522;BME280;32291;52.010;4.446;2024-03-08T04:21:20;79617.34;;;-144.67;100.00
47522;BME280;32291;52.010;4.446;2024-03-08T04:22:27;79615.19;;;-144.67;100.00
47522;BME280;32291;52.010;4.446;2024-03-08T04:23:35;79623.75;;;-144.67;100.00
47522;BME280;32291;52.010;4.446;2024-03-08T04:24:44;79615.19;;;-144.67;100.00
47522;BME280;32291;52.010;4.446;2024-03-08T04:25:51;79621.63;;;-144.67;100.00
47522;BME280;32291;52.010;4.446;2024-03-08T04:26:57;79630.19;;;-144.67;100.00
47522;BME280;32291;52.010;4.446;2024-03-08T04:28:00;79628.03;;;-144.67;100.00
47522;BME280;32291;52.010;4.446;2024-03-08T04:29:07;79636.63;;;-144.67;100.00
47522;BME280;32291;52.010;4.446;2024-03-08T04:30:10;79628.03;;;-144.67;100.00
47522;BME280;32291;52.010;4.446;2024-03-08T04:31:17;79632.34;;;-144.67;100.00
47522;BME280;32291;52.010;4.446;2024-03-08T04:32:24;79636.63;;;-144.67;100.00
47522;BME280;32291;52.010;4.446;2024-03-08T04:33:31;79632.34;;;-144.67;100.00
47522;BME280;32291;52.010;4.446;2024-03-08T04:34:34;79632.34;;;-144.67;100.00
47522;BME280;32291;52.010;4.446;2024-03-08T04:35:41;79628.03;;;-144.67;100.00
47522;BME280;32291;52.010;4.446;2024-03-08T04:36:48;79632.34;;;-144.67;100.00
47522;BME280;32291;52.010;4.446;2024-03-08T04:37:55;79634.47;;;-144.67;100.00
47522;BME280;32291;52.010;4.446;2024-03-08T04:39:04;79628.03;;;-144.67;100.00
47522;BME280;32291;52.010;4.446;2024-03-08T04:40:07;79630.19;;;-144.67;100.00
47522;BME280;32291;52.010;4.446;2024-03-08T04:41:14;79630.19;;;-144.67;100.00
47522;BME280;32291;52.010;4.446;2024-03-08T04:42:21;79630.19;;;-144.67;100.00
47522;BME280;32291;52.010;4.446;2024-03-08T04:43:25;79632.34;;;-144.67;100.00
47522;BME280;32291;52.010;4.446;2024-03-08T04:44:33;79636.63;;;-144.67;100.00
47522;BME280;32291;52.010;4.446;2024-03-08T04:45:40;79640.91;;;-144.67;100.00
47522;BME280;32291;52.010;4.446;2024-03-08T04:46:48;79645.19;;;-144.67;100.00
47522;BME280;32291;52.010;4.446;2024-03-08T04:47:55;79640.91;;;-144.67;100.00
47522;BME280;32291;52.010;4.446;2024-03-08T04:49:03;79632.34;;;-144.67;100.00
47522;BME280;32291;52.010;4.446;2024-03-08T04:50:06;79628.03;;;-144.67;100.00
47522;BME280;32291;52.010;4.446;2024-03-08T04:51:09;79628.03;;;-144.67;100.00
47522;BME280;32291;52.010;4.446;2024-03-08T04:52:16;79623.75;;;-144.67;100.00
47522;BME280;32291;52.010;4.446;2024-03-08T04:53:23;79630.19;;;-144.67;100.00
47522;BME280;32291;52.010;4.446;2024-03-08T04:54:31;79638.75;;;-144.67;100.00
47522;BME280;32291;52.010;4.446;2024-03-08T04:55:38;79640.91;;;-144.67;100.00
47522;BME280;32291;52.010;4.446;2024-03-08T04:56:45;79636.63;;;-144.67;100.00
47522;BME280;32291;52.010;4.446;2024-03-08T04:57:52;79640.91;;;-144.67;100.00
47522;BME280;32291;52.010;4.446;2024-03-08T04:58:59;79638.75;;;-144.67;100.00
47522;BME280;32291;52.010;4.446;2024-03-08T05:00:03;79628.03;;;-144.67;100.00
47522;BME280;32291;52.010;4.446;2024-03-08T05:01:15;79632.34;;;-144.67;100.00
47522;BME280;32291;52.010;4.446;2024-03-08T05:02:17;79628.03;;;-144.67;100.00
47522;BME280;32291;52.010;4.446;2024-03-08T05:03:24;79619.47;;;-144.67;100.00
47522;BME280;32291;52.010;4.446;2024-03-08T05:04:33;79617.34;;;-144.67;100.00
47522;BME280;32291;52.010;4.446;2024-03-08T05:05:40;79628.03;;;-144.67;100.00
47522;BME280;32291;52.010;4.446;2024-03-08T05:06:41;79630.19;;;-144.67;100.00
47522;BME280;32291;52.010;4.446;2024-03-08T05:07:48;79625.91;;;-144.67;100.00
47522;BME280;32291;52.010;4.446;2024-03-08T05:08:56;79617.34;;;-144.67;100.00
47522;BME280;32291;52.010;4.446;2024-03-08T05:10:03;79621.63;;;-144.67;100.00
47522;BME280;32291;52.010;4.446;2024-03-08T05:11:05;79634.47;;;-144.67;100.00
47522;BME280;32291;52.010;4.446;2024-03-08T05:12:09;79628.03;;;-144.67;100.00
47522;BME280;32291;52.010;4.446;2024-03-08T05:13:15;79632.34;;;-144.67;100.00
47522;BME280;32291;52.010;4.446;2024-03-08T05:14:22;79636.63;;;-144.67;100.00
47522;BME280;32291;52.010;4.446;2024-03-08T05:15:27;79636.63;;;-144.67;100.00
47522;BME280;32291;52.010;4.446;2024-03-08T05:16:34;79632.34;;;-144.67;100.00
47522;BME280;32291;52.010;4.446;2024-03-08T05:17:41;79632.34;;;-144.67;100.00
47522;BME280;32291;52.010;4.446;2024-03-08T05:18:48;79640.91;;;-144.67;100.00
47522;BME280;32291;52.010;4.446;2024-03-08T05:19:55;79636.63;;;-144.67;100.00
47522;BME280;32291;52.010;4.446;2024-03-08T05:20:57;79638.75;;;-144.67;100.00
47522;BME280;32291;52.010;4.446;2024-03-08T05:21:59;79636.63;;;-144.67;100.00
47522;BME280;32291;52.010;4.446;2024-03-08T05:23:06;79628.03;;;-144.67;100.00
47522;BME280;32291;52.010;4.446;2024-03-08T05:24:14;79632.34;;;-144.67;100.00
47522;BME280;32291;52.010;4.446;2024-03-08T05:25:22;79623.75;;;-144.67;100.00
47522;BME280;32291;52.010;4.446;2024-03-08T05:26:28;79634.47;;;-144.67;100.00
47522;BME280;32291;52.010;4.446;2024-03-08T05:27:36;79636.63;;;-144.67;100.00
47522;BME280;32291;52.010;4.446;2024-03-08T05:28:44;79640.91;;;-144.67;100.00
47522;BME280;32291;52.010;4.446;2024-03-08T05:29:51;79638.75;;;-144.67;100.00
47522;BME280;32291;52.010;4.446;2024-03-08T05:30:59;79647.31;;;-144.67;100.00
47522;BME280;32291;52.010;4.446;2024-03-08T05:32:22;79643.03;;;-144.67;100.00
47522;BME280;32291;52.010;4.446;2024-03-08T05:33:29;79645.19;;;-144.67;100.00
47522;BME280;32291;52.010;4.446;2024-03-08T05:34:36;79647.31;;;-144.67;100.00
47522;BME280;32291;52.010;4.446;2024-03-08T05:35:40;79640.91;;;-144.67;100.00
47522;BME280;32291;52.010;4.446;2024-03-08T05:36:48;79643.03;;;-144.67;100.00
47522;BME280;32291;52.010;4.446;2024-03-08T05:37:57;79647.31;;;-144.67;100.00
47522;BME280;32291;52.010;4.446;2024-03-08T05:39:04;79640.91;;;-144.67;100.00